createdAt,value
2023-04-07T00:00:39.472Z,81.59
2023-04-07T00:01:36.302Z,81.10
2023-04-07T00:02:33.276Z,81.50
2023-04-07T00:03:30.853Z,81.81
2023-04-07T00:04:28.219Z,81.45
2023-04-07T00:05:25.478Z,80.86
2023-04-07T00:06:22.870Z,80.31
2023-04-07T00:07:19.742Z,81.00
2023-04-07T00:08:16.700Z,80.25
2023-04-07T00:09:13.474Z,81.48
2023-04-07T00:10:10.587Z,80.88
2023-04-07T00:11:08.928Z,81.53
2023-04-07T00:12:05.784Z,81.49
2023-04-07T00:13:02.883Z,80.30
2023-04-07T00:13:59.773Z,80.43
2023-04-07T00:14:56.491Z,81.06
2023-04-07T00:15:53.313Z,81.39
2023-04-07T00:16:50.146Z,81.62
2023-04-07T00:17:46.918Z,80.97
2023-04-07T00:18:43.805Z,82.91
2023-04-07T00:19:40.687Z,82.68
2023-04-07T00:20:37.428Z,82.30
2023-04-07T00:21:34.168Z,82.63
2023-04-07T00:22:30.877Z,82.15
2023-04-07T00:23:27.893Z,82.27
2023-04-07T00:24:33.894Z,80.83
2023-04-07T00:25:31.496Z,80.04
2023-04-07T00:26:31.545Z,79.70
2023-04-07T00:27:28.316Z,80.94
2023-04-07T00:28:25.309Z,81.12
2023-04-07T00:29:22.058Z,81.68
2023-04-07T00:30:18.944Z,81.32
2023-04-07T00:31:15.811Z,80.31
2023-04-07T00:32:12.742Z,79.41
2023-04-07T00:33:10.093Z,79.62
2023-04-07T00:34:06.954Z,79.79
2023-04-07T00:35:03.814Z,79.18
2023-04-07T00:36:00.699Z,78.86
2023-04-07T00:36:57.539Z,79.10
2023-04-07T00:37:54.442Z,78.85
2023-04-07T00:38:51.176Z,78.46
2023-04-07T00:39:47.895Z,77.27
2023-04-07T00:40:44.642Z,77.69
2023-04-07T00:41:41.809Z,78.15
2023-04-07T00:42:38.567Z,76.70
2023-04-07T00:43:37.214Z,77.11
2023-04-07T00:44:34.669Z,78.23
2023-04-07T00:45:31.654Z,78.18
2023-04-07T00:46:28.962Z,76.63
2023-04-07T00:47:25.960Z,76.80
2023-04-07T00:48:23.283Z,76.28
2023-04-07T00:49:20.182Z,75.44
2023-04-07T00:50:18.419Z,76.47
2023-04-07T00:51:16.092Z,75.96
2023-04-07T00:52:15.009Z,75.80
2023-04-07T00:53:12.504Z,75.63
2023-04-07T00:54:11.238Z,75.20
2023-04-07T00:55:08.474Z,75.15
2023-04-07T00:56:05.749Z,75.32
2023-04-07T00:57:02.788Z,74.71
2023-04-07T00:57:59.561Z,74.51
2023-04-07T00:58:56.446Z,73.87
2023-04-07T00:59:53.826Z,74.20
2023-04-07T01:01:12.020Z,72.98
2023-04-07T01:02:19.515Z,73.25
2023-04-07T01:03:26.536Z,72.40
2023-04-07T01:04:26.312Z,72.04
2023-04-07T01:05:54.676Z,72.16
2023-04-07T01:06:59.214Z,71.29
2023-04-07T01:08:19.906Z,71.73
2023-04-07T01:09:25.552Z,71.96
2023-04-07T01:10:36.780Z,71.96
2023-04-07T01:11:52.947Z,72.89
2023-04-07T01:12:55.179Z,72.58
2023-04-07T01:13:53.830Z,71.76
2023-04-07T01:14:56.075Z,71.18
2023-04-07T01:15:58.527Z,72.23
2023-04-07T01:17:00.524Z,71.76
2023-04-07T01:18:08.803Z,71.82
2023-04-07T01:19:32.951Z,72.81
2023-04-07T01:20:33.800Z,72.48
2023-04-07T01:21:35.153Z,71.61
2023-04-07T01:22:42.100Z,70.23
2023-04-07T01:24:12.940Z,70.18
2023-04-07T01:25:34.108Z,69.82
2023-04-07T01:26:35.127Z,68.88
2023-04-07T01:27:38.421Z,68.05
2023-04-07T01:28:44.043Z,68.55
2023-04-07T01:29:48.152Z,68.76
2023-04-07T01:30:48.002Z,69.08
2023-04-07T01:31:49.169Z,68.67
2023-04-07T01:32:52.058Z,68.31
2023-04-07T01:33:51.221Z,67.57
2023-04-07T01:34:50.794Z,68.10
2023-04-07T01:35:50.999Z,68.01
2023-04-07T01:36:50.552Z,67.21
2023-04-07T01:37:56.429Z,67.06
2023-04-07T01:38:54.782Z,67.19
2023-04-07T01:39:51.709Z,67.86
2023-04-07T01:40:50.810Z,67.20
2023-04-07T01:41:51.455Z,66.51
2023-04-07T01:42:50.041Z,65.86
2023-04-07T01:43:48.964Z,67.02
2023-04-07T01:44:47.973Z,66.80
2023-04-07T01:45:46.275Z,66.38
2023-04-07T01:46:43.426Z,67.19
2023-04-07T01:47:40.825Z,66.27
2023-04-07T01:48:39.781Z,66.90
2023-04-07T01:49:38.193Z,65.95
2023-04-07T01:50:36.219Z,65.70
2023-04-07T01:51:34.917Z,66.61
2023-04-07T01:52:33.647Z,66.23
2023-04-07T01:53:30.819Z,66.61
2023-04-07T01:54:29.111Z,66.21
2023-04-07T01:55:26.359Z,65.89
2023-04-07T01:56:23.401Z,65.85
2023-04-07T01:57:20.372Z,65.51
2023-04-07T01:58:17.086Z,65.81
2023-04-07T01:59:13.853Z,67.25
2023-04-07T02:00:11.148Z,67.15
2023-04-07T02:01:07.969Z,67.98
2023-04-07T02:02:04.932Z,66.04
2023-04-07T02:03:46.130Z,66.52
2023-04-07T02:04:56.374Z,65.60
2023-04-07T02:05:57.650Z,65.86
2023-04-07T02:07:05.842Z,65.13
2023-04-07T02:08:08.180Z,65.47
2023-04-07T02:09:09.894Z,64.99
2023-04-07T02:10:12.164Z,64.61
2023-04-07T02:11:13.018Z,64.07
2023-04-07T02:12:14.272Z,64.87
2023-04-07T02:13:18.919Z,65.96
2023-04-07T02:14:17.817Z,65.68
2023-04-07T02:15:16.749Z,64.64
2023-04-07T02:16:15.789Z,64.23
2023-04-07T02:17:16.389Z,64.36
2023-04-07T02:18:15.771Z,64.10
2023-04-07T02:19:12.856Z,64.54
2023-04-07T02:20:12.730Z,63.69
2023-04-07T02:21:11.708Z,64.16
2023-04-07T02:22:09.401Z,64.70
2023-04-07T02:23:10.863Z,63.94
2023-04-07T02:24:08.122Z,63.93
2023-04-07T02:25:25.519Z,62.56
2023-04-07T02:26:22.342Z,63.54
2023-04-07T02:27:20.645Z,62.40
2023-04-07T02:28:17.441Z,61.87
2023-04-07T02:29:14.439Z,62.87
2023-04-07T02:30:11.581Z,61.64
2023-04-07T02:31:08.536Z,62.68
2023-04-07T02:32:06.923Z,61.33
2023-04-07T02:33:04.038Z,62.26
2023-04-07T02:34:00.848Z,62.55
2023-04-07T02:34:57.587Z,62.54
2023-04-07T02:35:54.321Z,62.96
2023-04-07T02:36:51.675Z,62.48
2023-04-07T02:37:49.182Z,62.52
2023-04-07T02:38:46.173Z,62.92
2023-04-07T02:39:42.937Z,62.39
2023-04-07T02:40:39.856Z,61.39
2023-04-07T02:41:37.052Z,62.45
2023-04-07T02:42:33.871Z,61.67
2023-04-07T02:43:30.596Z,62.25
2023-04-07T02:44:27.541Z,61.24
2023-04-07T02:45:24.500Z,62.13
2023-04-07T02:46:21.362Z,60.35
2023-04-07T02:47:18.196Z,62.78
2023-04-07T02:48:14.994Z,63.48
2023-04-07T02:49:11.805Z,62.19
2023-04-07T02:50:08.922Z,63.24
2023-04-07T02:51:05.799Z,62.64
2023-04-07T02:52:03.248Z,61.46
2023-04-07T02:53:00.155Z,61.78
2023-04-07T02:53:57.213Z,62.11
2023-04-07T02:54:54.594Z,60.88
2023-04-07T02:55:51.476Z,62.59
2023-04-07T02:56:48.184Z,61.80
2023-04-07T02:57:44.919Z,62.36
2023-04-07T02:58:41.706Z,61.79
2023-04-07T02:59:38.420Z,62.87
2023-04-07T03:00:35.522Z,61.75
2023-04-07T03:01:33.279Z,61.28
2023-04-07T03:02:30.368Z,61.16
2023-04-07T03:03:27.364Z,61.33
2023-04-07T03:04:24.426Z,60.63
2023-04-07T03:05:21.268Z,60.40
2023-04-07T03:06:18.035Z,59.84
2023-04-07T03:07:15.798Z,61.62
2023-04-07T03:08:13.171Z,60.22
2023-04-07T03:09:09.985Z,59.41
2023-04-07T03:10:07.170Z,60.51
2023-04-07T03:11:03.961Z,59.74
2023-04-07T03:12:00.735Z,60.49
2023-04-07T03:12:57.884Z,60.77
2023-04-07T03:13:54.785Z,59.66
2023-04-07T03:14:51.621Z,59.95
2023-04-07T03:15:48.330Z,60.24
2023-04-07T03:16:45.409Z,59.46
2023-04-07T03:17:42.358Z,60.18
2023-04-07T03:18:39.170Z,61.20
2023-04-07T03:19:36.198Z,61.08
2023-04-07T03:20:32.976Z,61.23
2023-04-07T03:21:31.918Z,61.03
2023-04-07T03:22:28.802Z,61.09
2023-04-07T03:23:25.829Z,61.44
2023-04-07T03:24:22.820Z,62.02
2023-04-07T03:25:19.689Z,62.37
2023-04-07T03:26:16.642Z,62.14
2023-04-07T03:27:13.434Z,62.35
2023-04-07T03:28:10.504Z,61.91
2023-04-07T03:29:07.294Z,61.97
2023-04-07T03:30:04.709Z,62.94
2023-04-07T03:31:01.724Z,61.87
2023-04-07T03:31:58.459Z,61.79
2023-04-07T03:32:55.396Z,63.22
2023-04-07T03:33:52.389Z,62.97
2023-04-07T03:34:49.314Z,62.56
2023-04-07T03:35:46.099Z,63.18
2023-04-07T03:36:42.933Z,62.46
2023-04-07T03:37:39.722Z,63.17
2023-04-07T03:38:36.670Z,63.75
2023-04-07T03:39:33.400Z,63.08
2023-04-07T03:40:30.329Z,65.04
2023-04-07T03:41:27.054Z,63.42
2023-04-07T03:42:23.829Z,62.44
2023-04-07T03:43:20.641Z,62.47
2023-04-07T03:44:17.655Z,62.50
2023-04-07T03:45:14.449Z,63.50
2023-04-07T03:46:11.540Z,64.04
2023-04-07T03:47:08.335Z,63.40
2023-04-07T03:48:05.545Z,63.79
2023-04-07T03:49:02.378Z,62.57
2023-04-07T03:49:59.150Z,63.96
2023-04-07T03:50:55.914Z,63.41
2023-04-07T03:51:52.695Z,63.98
2023-04-07T03:52:49.454Z,62.81
2023-04-07T03:53:46.430Z,62.88
2023-04-07T03:54:43.312Z,62.95
2023-04-07T03:55:40.171Z,63.73
2023-04-07T03:56:37.457Z,63.10
2023-04-07T03:57:34.251Z,63.70
2023-04-07T03:58:31.592Z,64.17
2023-04-07T03:59:28.728Z,63.69
2023-04-07T04:00:25.960Z,65.26
2023-04-07T04:01:22.770Z,64.09
2023-04-07T04:02:19.789Z,64.34
2023-04-07T04:03:16.781Z,64.12
2023-04-07T04:04:13.751Z,63.97
2023-04-07T04:05:10.720Z,63.93
2023-04-07T04:06:07.529Z,64.25
2023-04-07T04:07:04.308Z,64.24
2023-04-07T04:08:01.186Z,64.23
2023-04-07T04:08:58.018Z,64.17
2023-04-07T04:09:54.790Z,64.42
2023-04-07T04:10:52.200Z,64.57
2023-04-07T04:11:49.072Z,63.55
2023-04-07T04:12:48.049Z,64.26
2023-04-07T04:13:44.787Z,63.35
2023-04-07T04:14:50.780Z,63.20
2023-04-07T04:15:47.670Z,63.50
2023-04-07T04:16:44.480Z,62.03
2023-04-07T04:17:41.979Z,63.72
2023-04-07T04:18:38.855Z,63.08
2023-04-07T04:19:35.820Z,63.31
2023-04-07T04:20:32.573Z,62.02
2023-04-07T04:21:29.560Z,62.23
2023-04-07T04:22:26.546Z,62.93
2023-04-07T04:23:23.272Z,64.18
2023-04-07T04:24:19.996Z,64.21
2023-04-07T04:25:17.909Z,63.37
2023-04-07T04:26:14.653Z,63.06
2023-04-07T04:27:11.489Z,63.36
2023-04-07T04:28:08.248Z,63.55
2023-04-07T04:29:05.028Z,62.77
2023-04-07T04:30:01.823Z,62.72
2023-04-07T04:30:58.663Z,60.72
2023-04-07T04:31:55.416Z,62.70
2023-04-07T04:32:52.283Z,62.28
2023-04-07T04:33:50.618Z,63.03
2023-04-07T04:34:47.417Z,62.06
2023-04-07T04:35:45.433Z,61.24
2023-04-07T04:36:42.305Z,61.51
2023-04-07T04:37:39.199Z,62.63
2023-04-07T04:38:36.009Z,67.51
2023-04-07T04:39:32.755Z,72.06
2023-04-07T04:40:29.515Z,74.35
2023-04-07T04:41:26.276Z,74.92
2023-04-07T04:42:23.037Z,75.92
2023-04-07T04:43:19.874Z,77.00
2023-04-07T04:44:16.706Z,77.68
2023-04-07T04:45:13.547Z,78.35
2023-04-07T04:46:10.606Z,77.82
2023-04-07T04:47:07.446Z,80.31
2023-04-07T04:48:04.471Z,83.77
2023-04-07T04:49:01.334Z,86.23
2023-04-07T04:49:58.235Z,88.26
2023-04-07T04:50:55.035Z,87.94
2023-04-07T04:51:52.137Z,87.45
2023-04-07T04:52:48.940Z,88.37
2023-04-07T04:53:45.983Z,89.73
2023-04-07T04:54:42.780Z,91.17
2023-04-07T04:55:40.982Z,94.04
2023-04-07T04:56:37.748Z,97.64
2023-04-07T04:57:36.169Z,99.18
2023-04-07T04:58:32.961Z,100.00
2023-04-07T04:59:29.770Z,100.00
2023-04-07T05:00:26.523Z,100.00
2023-04-07T05:01:23.333Z,100.00
2023-04-07T05:02:20.740Z,100.00
2023-04-07T05:03:17.903Z,100.00
2023-04-07T05:04:15.109Z,100.00
2023-04-07T05:05:12.121Z,100.00
2023-04-07T05:06:08.950Z,100.00
2023-04-07T05:07:05.716Z,100.00
2023-04-07T05:08:02.532Z,100.00
2023-04-07T05:08:59.395Z,100.00
2023-04-07T05:09:56.607Z,100.00
2023-04-07T05:10:53.425Z,100.00
2023-04-07T05:11:50.281Z,100.00
2023-04-07T05:12:47.108Z,100.00
2023-04-07T05:13:43.901Z,100.00
2023-04-07T05:14:40.641Z,100.00
2023-04-07T05:15:37.398Z,100.00
2023-04-07T05:16:34.820Z,100.00
2023-04-07T05:17:31.663Z,100.00
2023-04-07T05:18:28.431Z,100.00
2023-04-07T05:19:25.525Z,100.00
2023-04-07T05:20:22.357Z,99.19
2023-04-07T05:21:21.964Z,98.81
2023-04-07T05:22:18.793Z,100.00
2023-04-07T05:23:15.943Z,100.00
2023-04-07T05:24:12.722Z,100.00
2023-04-07T05:25:09.697Z,100.00
2023-04-07T05:26:06.516Z,100.00
2023-04-07T05:27:03.287Z,100.00
2023-04-07T05:28:00.043Z,100.00
2023-04-07T05:28:56.775Z,100.00
2023-04-07T05:29:53.538Z,100.00
2023-04-07T05:30:50.550Z,100.00
2023-04-07T05:31:47.437Z,100.00
2023-04-07T05:32:44.358Z,100.00
2023-04-07T05:33:41.485Z,100.00
2023-04-07T05:34:38.286Z,98.38
2023-04-07T05:35:35.360Z,98.86
2023-04-07T05:36:32.155Z,100.00
2023-04-07T05:37:28.960Z,99.64
2023-04-07T05:38:26.141Z,100.00
2023-04-07T05:39:23.020Z,97.34
2023-04-07T05:40:22.915Z,95.48
2023-04-07T05:41:19.676Z,93.07
2023-04-07T05:42:16.469Z,94.21
2023-04-07T05:43:13.223Z,92.60
2023-04-07T05:44:09.985Z,93.65
2023-04-07T05:45:07.539Z,92.19
2023-04-07T05:46:04.442Z,91.07
2023-04-07T05:47:01.290Z,91.21
2023-04-07T05:47:58.098Z,91.62
2023-04-07T05:48:54.855Z,91.67
2023-04-07T05:49:51.766Z,91.72
2023-04-07T05:50:48.561Z,90.00
2023-04-07T05:51:46.825Z,91.67
2023-04-07T05:52:45.304Z,91.92
2023-04-07T05:53:42.037Z,90.29
2023-04-07T05:54:40.838Z,89.95
2023-04-07T05:55:37.717Z,88.00
2023-04-07T05:56:34.444Z,88.86
2023-04-07T05:57:31.165Z,84.90
2023-04-07T05:58:28.152Z,82.45
2023-04-07T05:59:24.905Z,79.50
2023-04-07T06:00:22.044Z,79.42
2023-04-07T06:01:18.746Z,75.32
2023-04-07T06:02:15.575Z,75.61
2023-04-07T06:03:12.442Z,72.65
2023-04-07T06:04:09.222Z,69.27
2023-04-07T06:05:07.310Z,67.58
2023-04-07T06:06:04.353Z,65.67
2023-04-07T06:07:02.015Z,65.29
2023-04-07T06:07:58.786Z,65.25
2023-04-07T06:08:55.722Z,63.88
2023-04-07T06:09:52.485Z,63.22
2023-04-07T06:10:49.461Z,62.00
2023-04-07T06:11:47.163Z,62.59
2023-04-07T06:12:43.999Z,64.04
2023-04-07T06:13:40.973Z,66.36
2023-04-07T06:14:38.152Z,66.08
2023-04-07T06:15:35.087Z,64.87
2023-04-07T06:16:31.840Z,63.52
2023-04-07T06:17:28.617Z,62.38
2023-04-07T06:18:25.563Z,61.25
2023-04-07T06:19:22.318Z,60.87
2023-04-07T06:20:21.638Z,60.23
2023-04-07T06:21:18.325Z,58.90
2023-04-07T06:22:15.565Z,59.18
2023-04-07T06:23:12.614Z,59.09
2023-04-07T06:24:09.420Z,58.35
2023-04-07T06:25:07.111Z,57.59
2023-04-07T06:26:04.032Z,58.40
2023-04-07T06:27:01.998Z,57.03
2023-04-07T06:27:59.525Z,57.24
2023-04-07T06:28:56.617Z,57.08
2023-04-07T06:29:53.456Z,56.54
2023-04-07T06:30:50.527Z,56.25
2023-04-07T06:31:47.347Z,56.05
2023-04-07T06:32:44.190Z,55.43
2023-04-07T06:33:41.208Z,56.42
2023-04-07T06:34:38.018Z,55.09
2023-04-07T06:35:34.821Z,55.24
2023-04-07T06:36:33.202Z,54.71
2023-04-07T06:37:30.380Z,54.41
2023-04-07T06:38:27.179Z,54.75
2023-04-07T06:39:25.392Z,53.89
2023-04-07T06:40:22.175Z,53.95
2023-04-07T06:41:18.966Z,54.45
2023-04-07T06:42:15.853Z,54.27
2023-04-07T06:43:12.815Z,53.92
2023-04-07T06:44:11.239Z,53.03
2023-04-07T06:45:08.794Z,53.71
2023-04-07T06:46:05.572Z,54.17
2023-04-07T06:47:02.343Z,54.31
2023-04-07T06:47:59.151Z,55.41
2023-04-07T06:48:56.516Z,53.61
2023-04-07T06:49:53.246Z,53.55
2023-04-07T06:50:50.531Z,54.05
2023-04-07T06:51:47.392Z,53.92
2023-04-07T06:52:44.178Z,53.69
2023-04-07T06:53:41.930Z,54.05
2023-04-07T06:54:38.789Z,53.77
2023-04-07T06:55:35.856Z,54.03
2023-04-07T06:56:33.591Z,53.18
2023-04-07T06:57:30.421Z,53.07
2023-04-07T06:58:27.253Z,53.92
2023-04-07T06:59:24.110Z,53.03
2023-04-07T07:00:23.130Z,52.93
2023-04-07T07:01:19.926Z,52.95
2023-04-07T07:02:17.141Z,52.93
2023-04-07T07:03:14.120Z,52.79
2023-04-07T07:04:11.179Z,53.71
2023-04-07T07:05:08.414Z,53.34
2023-04-07T07:06:05.581Z,53.73
2023-04-07T07:07:03.477Z,53.23
2023-04-07T07:08:00.318Z,53.64
2023-04-07T07:08:57.805Z,52.22
2023-04-07T07:09:54.695Z,52.45
2023-04-07T07:10:51.921Z,52.32
2023-04-07T07:11:48.690Z,53.40
2023-04-07T07:12:45.439Z,53.38
2023-04-07T07:13:42.125Z,53.36
2023-04-07T07:14:38.911Z,52.31
2023-04-07T07:15:35.691Z,52.66
2023-04-07T07:16:32.501Z,52.76
2023-04-07T07:17:29.365Z,51.52
2023-04-07T07:18:26.059Z,51.56
2023-04-07T07:19:22.785Z,52.04
2023-04-07T07:20:19.674Z,53.10
2023-04-07T07:21:18.383Z,52.98
2023-04-07T07:22:15.118Z,52.37
2023-04-07T07:23:12.080Z,51.74
2023-04-07T07:24:08.964Z,52.50
2023-04-07T07:25:05.885Z,52.50
2023-04-07T07:26:03.655Z,51.78
2023-04-07T07:27:02.501Z,51.80
2023-04-07T07:27:59.266Z,50.39
2023-04-07T07:28:56.148Z,51.59
2023-04-07T07:29:52.945Z,51.26
2023-04-07T07:30:50.063Z,51.14
2023-04-07T07:31:46.837Z,50.38
2023-04-07T07:32:43.580Z,51.07
2023-04-07T07:33:41.487Z,51.22
2023-04-07T07:34:38.330Z,50.55
2023-04-07T07:35:35.361Z,50.30
2023-04-07T07:36:32.325Z,50.39
2023-04-07T07:37:29.120Z,49.75
2023-04-07T07:38:27.597Z,49.82
2023-04-07T07:39:24.445Z,49.72
2023-04-07T07:40:21.508Z,50.18
2023-04-07T07:41:18.273Z,50.96
2023-04-07T07:42:15.375Z,50.61
2023-04-07T07:43:12.606Z,50.06
2023-04-07T07:44:09.337Z,51.21
2023-04-07T07:45:06.418Z,50.45
2023-04-07T07:46:03.915Z,50.53
2023-04-07T07:47:00.758Z,49.94
2023-04-07T07:47:57.794Z,49.92
2023-04-07T07:48:54.641Z,51.04
2023-04-07T07:49:51.372Z,50.96
2023-04-07T07:50:49.134Z,50.32
2023-04-07T07:51:46.711Z,49.96
2023-04-07T07:52:43.455Z,50.80
2023-04-07T07:53:40.306Z,50.88
2023-04-07T07:54:37.253Z,51.30
2023-04-07T07:55:34.082Z,51.32
2023-04-07T07:56:31.170Z,51.71
2023-04-07T07:57:28.039Z,51.46
2023-04-07T07:58:25.124Z,50.72
2023-04-07T07:59:21.976Z,50.95
2023-04-07T08:00:18.949Z,50.74
2023-04-07T08:01:15.944Z,51.28
2023-04-07T08:02:12.746Z,51.79
2023-04-07T08:03:09.646Z,51.36
2023-04-07T08:04:06.659Z,50.93
2023-04-07T08:05:03.855Z,51.07
2023-04-07T08:06:01.187Z,50.61
2023-04-07T08:06:58.297Z,50.58
2023-04-07T08:07:55.548Z,50.41
2023-04-07T08:08:52.345Z,50.51
2023-04-07T08:09:49.727Z,50.26
2023-04-07T08:10:46.561Z,50.43
2023-04-07T08:11:43.546Z,50.56
2023-04-07T08:12:40.695Z,50.56
2023-04-07T08:13:37.469Z,50.96
2023-04-07T08:14:34.247Z,50.58
2023-04-07T08:15:31.187Z,50.90
2023-04-07T08:16:28.174Z,50.67
2023-04-07T08:17:25.071Z,50.42
2023-04-07T08:18:22.172Z,50.54
2023-04-07T08:19:19.155Z,51.20
2023-04-07T08:20:16.368Z,51.96
2023-04-07T08:21:13.148Z,51.78
2023-04-07T08:22:09.954Z,51.12
2023-04-07T08:23:06.687Z,50.68
2023-04-07T08:24:03.670Z,51.33
2023-04-07T08:25:00.500Z,50.28
2023-04-07T08:25:57.226Z,50.24
2023-04-07T08:26:53.962Z,50.16
2023-04-07T08:27:50.944Z,50.95
2023-04-07T08:28:49.080Z,49.78
2023-04-07T08:29:45.893Z,49.44
2023-04-07T08:30:42.625Z,49.03
2023-04-07T08:31:39.447Z,49.20
2023-04-07T08:32:36.356Z,49.51
2023-04-07T08:33:33.182Z,50.21
2023-04-07T08:34:29.981Z,48.26
2023-04-07T08:35:26.770Z,49.81
2023-04-07T08:36:24.612Z,48.16
2023-04-07T08:37:21.514Z,48.25
2023-04-07T08:38:18.326Z,48.85
2023-04-07T08:39:15.057Z,47.98
2023-04-07T08:40:13.105Z,47.36
2023-04-07T08:41:18.384Z,48.11
2023-04-07T08:42:17.803Z,47.45
2023-04-07T08:43:17.988Z,47.41
2023-04-07T08:44:15.990Z,47.77
2023-04-07T08:45:13.951Z,47.66
2023-04-07T08:46:11.481Z,48.25
2023-04-07T08:47:11.690Z,47.96
2023-04-07T08:48:17.861Z,47.54
2023-04-07T08:49:18.536Z,48.54
2023-04-07T08:50:18.282Z,48.80
2023-04-07T08:51:19.038Z,48.30
2023-04-07T08:52:18.286Z,47.85
2023-04-07T08:53:23.450Z,48.33
2023-04-07T08:54:24.596Z,49.15
2023-04-07T08:55:21.347Z,48.81
2023-04-07T08:56:19.033Z,49.34
2023-04-07T08:57:18.074Z,49.08
2023-04-07T08:58:16.704Z,47.90
2023-04-07T08:59:16.046Z,47.53
2023-04-07T09:00:13.839Z,47.41
2023-04-07T09:01:11.729Z,47.75
2023-04-07T09:02:09.334Z,48.24
2023-04-07T09:03:08.826Z,47.80
2023-04-07T09:04:09.262Z,47.50
2023-04-07T09:05:08.926Z,48.16
2023-04-07T09:06:06.237Z,47.88
2023-04-07T09:07:03.322Z,48.05
2023-04-07T09:08:00.144Z,47.50
2023-04-07T09:08:56.942Z,47.40
2023-04-07T09:09:53.745Z,46.97
2023-04-07T09:10:50.893Z,47.83
2023-04-07T09:11:48.700Z,47.65
2023-04-07T09:12:45.486Z,47.17
2023-04-07T09:13:42.355Z,47.51
2023-04-07T09:14:39.073Z,47.19
2023-04-07T09:15:38.475Z,47.62
2023-04-07T09:16:36.057Z,47.31
2023-04-07T09:17:32.973Z,46.44
2023-04-07T09:18:30.223Z,47.05
2023-04-07T09:19:27.832Z,46.25
2023-04-07T09:20:25.446Z,46.86
2023-04-07T09:21:22.327Z,46.85
2023-04-07T09:22:36.280Z,46.95
2023-04-07T09:23:38.466Z,46.80
2023-04-07T09:24:35.295Z,48.20
2023-04-07T09:25:33.758Z,47.35
2023-04-07T09:26:31.733Z,46.82
2023-04-07T09:27:28.701Z,47.12
2023-04-07T09:28:25.971Z,47.56
2023-04-07T09:29:22.714Z,49.08
2023-04-07T09:30:19.656Z,48.67
2023-04-07T09:31:16.898Z,48.08
2023-04-07T09:32:36.280Z,47.13
2023-04-07T09:33:35.603Z,46.89
2023-04-07T09:34:37.278Z,47.43
2023-04-07T09:35:52.306Z,47.12
2023-04-07T09:36:49.129Z,46.87
2023-04-07T09:38:02.638Z,47.17
2023-04-07T09:39:08.511Z,47.68
2023-04-07T09:40:06.123Z,47.55
2023-04-07T09:41:17.170Z,47.77
2023-04-07T09:42:13.951Z,48.18
2023-04-07T09:43:18.840Z,48.80
2023-04-07T09:44:15.895Z,48.66
2023-04-07T09:45:16.372Z,48.39
2023-04-07T09:46:20.684Z,49.30
2023-04-07T09:47:18.130Z,49.41
2023-04-07T09:48:22.090Z,49.76
2023-04-07T09:49:22.720Z,49.65
2023-04-07T09:50:46.015Z,49.89
2023-04-07T09:52:09.099Z,49.88
2023-04-07T09:53:05.937Z,49.81
2023-04-07T09:54:02.991Z,49.94
2023-04-07T09:54:59.800Z,50.26
2023-04-07T09:55:57.714Z,50.01
2023-04-07T09:56:56.272Z,50.31
2023-04-07T09:57:55.505Z,50.83
2023-04-07T09:58:52.281Z,50.18
2023-04-07T09:59:50.467Z,50.01
2023-04-07T10:00:48.114Z,50.47
2023-04-07T10:01:45.147Z,49.91
2023-04-07T10:02:43.832Z,49.16
2023-04-07T10:03:40.811Z,48.90
2023-04-07T10:04:39.156Z,48.37
2023-04-07T10:05:39.062Z,48.01
2023-04-07T10:06:36.772Z,47.58
2023-04-07T10:07:34.965Z,48.49
2023-04-07T10:08:34.405Z,48.56
2023-04-07T10:09:31.857Z,48.90
2023-04-07T10:10:31.813Z,49.20
2023-04-07T10:11:28.601Z,49.10
2023-04-07T10:12:27.160Z,48.98
2023-04-07T10:13:25.958Z,49.70
2023-04-07T10:14:27.754Z,50.54
2023-04-07T10:15:25.063Z,50.72
2023-04-07T10:16:23.394Z,50.36
2023-04-07T10:17:24.745Z,50.21
2023-04-07T10:18:26.023Z,50.38
2023-04-07T10:19:23.766Z,50.83
2023-04-07T10:20:22.444Z,50.69
2023-04-07T10:21:19.407Z,50.55
2023-04-07T10:22:18.889Z,51.64
2023-04-07T10:23:49.305Z,51.81
2023-04-07T10:25:05.365Z,52.54
2023-04-07T10:26:05.656Z,52.54
2023-04-07T10:27:08.282Z,53.24
2023-04-07T10:28:09.710Z,53.17
2023-04-07T10:29:15.074Z,51.88
2023-04-07T10:30:19.367Z,51.74
2023-04-07T10:31:17.530Z,52.13
2023-04-07T10:32:14.510Z,52.77
2023-04-07T10:33:11.272Z,52.90
2023-04-07T10:34:08.087Z,53.27
2023-04-07T10:35:05.294Z,53.29
2023-04-07T10:36:07.304Z,53.29
2023-04-07T10:37:17.708Z,53.20
2023-04-07T10:38:16.471Z,53.55
2023-04-07T10:39:25.637Z,53.28
2023-04-07T10:40:27.926Z,52.75
2023-04-07T10:41:38.034Z,54.28
2023-04-07T10:42:37.719Z,54.35
2023-04-07T10:43:40.006Z,54.28
2023-04-07T10:44:39.304Z,54.67
2023-04-07T10:45:57.989Z,54.66
2023-04-07T10:47:00.853Z,54.46
2023-04-07T10:48:03.789Z,53.58
2023-04-07T10:49:13.281Z,54.78
2023-04-07T10:50:20.517Z,54.92
2023-04-07T10:51:18.826Z,54.65
2023-04-07T10:52:23.375Z,53.83
2023-04-07T10:53:20.126Z,54.26
2023-04-07T10:54:22.459Z,54.62
2023-04-07T10:55:45.319Z,55.08
2023-04-07T10:57:18.091Z,54.52
2023-04-07T10:58:26.057Z,54.67
2023-04-07T10:59:27.895Z,53.80
2023-04-07T11:00:24.931Z,54.66
2023-04-07T11:01:21.948Z,55.22
2023-04-07T11:02:24.767Z,55.55
2023-04-07T11:03:22.086Z,55.50
2023-04-07T11:04:19.128Z,55.01
2023-04-07T11:05:23.162Z,55.37
2023-04-07T11:06:23.225Z,55.92
2023-04-07T11:07:55.370Z,55.50
2023-04-07T11:08:52.201Z,55.63
2023-04-07T11:09:49.082Z,55.41
2023-04-07T11:10:48.341Z,55.25
2023-04-07T11:11:47.694Z,54.84
2023-04-07T11:12:44.759Z,55.62
2023-04-07T11:13:51.754Z,54.78
2023-04-07T11:14:48.572Z,55.37
2023-04-07T11:15:49.898Z,55.02
2023-04-07T11:16:46.838Z,54.59
2023-04-07T11:17:43.702Z,55.02
2023-04-07T11:18:41.423Z,55.89
2023-04-07T11:19:54.238Z,55.86
2023-04-07T11:20:58.383Z,56.30
2023-04-07T11:22:28.576Z,55.65
2023-04-07T11:23:27.546Z,55.26
2023-04-07T11:24:34.351Z,54.71
2023-04-07T11:25:33.087Z,53.94
2023-04-07T11:26:30.428Z,52.89
2023-04-07T11:27:28.536Z,52.58
2023-04-07T11:28:25.445Z,53.75
2023-04-07T11:29:31.921Z,54.05
2023-04-07T11:30:29.300Z,54.26
2023-04-07T11:31:31.278Z,53.71
2023-04-07T11:32:34.977Z,52.35
2023-04-07T11:33:32.322Z,53.13
2023-04-07T11:34:31.292Z,54.27
2023-04-07T11:35:28.125Z,55.37
2023-04-07T11:36:43.108Z,56.31
2023-04-07T11:37:40.024Z,57.69
2023-04-07T11:38:38.643Z,56.72
2023-04-07T11:39:37.806Z,56.12
2023-04-07T11:40:37.384Z,56.17
2023-04-07T11:41:34.102Z,56.90
2023-04-07T11:42:39.491Z,56.73
2023-04-07T11:43:40.235Z,56.38
2023-04-07T11:44:45.711Z,56.97
2023-04-07T11:45:42.565Z,55.87
2023-04-07T11:46:57.178Z,55.99
2023-04-07T11:47:53.994Z,56.60
2023-04-07T11:48:51.707Z,56.02
2023-04-07T11:49:48.793Z,56.24
2023-04-07T11:50:45.561Z,56.30
2023-04-07T11:51:44.561Z,56.49
2023-04-07T11:52:46.468Z,56.97
2023-04-07T11:53:43.825Z,56.38
2023-04-07T11:54:46.867Z,56.90
2023-04-07T11:55:43.661Z,56.85
2023-04-07T11:56:46.192Z,55.70
2023-04-07T11:57:43.008Z,55.85
2023-04-07T11:58:47.338Z,56.03
2023-04-07T11:59:44.161Z,55.43
2023-04-07T12:01:08.597Z,55.57
2023-04-07T12:02:06.736Z,55.69
2023-04-07T12:03:14.627Z,55.61
2023-04-07T12:04:17.729Z,56.21
2023-04-07T12:05:15.511Z,55.18
2023-04-07T12:06:12.557Z,54.73
2023-04-07T12:07:11.694Z,55.49
2023-04-07T12:08:08.483Z,55.69
2023-04-07T12:09:05.956Z,55.83
2023-04-07T12:10:23.698Z,56.07
2023-04-07T12:11:20.466Z,54.71
2023-04-07T12:12:27.305Z,55.47
2023-04-07T12:13:24.218Z,55.86
2023-04-07T12:14:21.069Z,56.10
2023-04-07T12:15:17.917Z,55.84
2023-04-07T12:16:14.718Z,56.05
2023-04-07T12:17:27.701Z,55.69
2023-04-07T12:18:25.211Z,56.13
2023-04-07T12:19:23.922Z,56.02
2023-04-07T12:20:21.042Z,57.08
2023-04-07T12:21:18.795Z,56.60
2023-04-07T12:22:18.744Z,56.11
2023-04-07T12:23:15.449Z,56.09
2023-04-07T12:24:13.027Z,56.72
2023-04-07T12:25:09.951Z,55.63
2023-04-07T12:26:06.761Z,55.79
2023-04-07T12:27:03.759Z,56.13
2023-04-07T12:28:02.633Z,56.61
2023-04-07T12:29:05.088Z,56.16
2023-04-07T12:30:01.948Z,55.97
2023-04-07T12:30:58.958Z,55.92
2023-04-07T12:31:56.546Z,56.38
2023-04-07T12:32:53.541Z,56.06
2023-04-07T12:33:52.761Z,55.37
2023-04-07T12:34:49.594Z,54.56
2023-04-07T12:35:49.417Z,55.10
2023-04-07T12:36:46.173Z,54.08
2023-04-07T12:37:42.941Z,56.45
2023-04-07T12:38:39.659Z,55.13